Impacts TAF Board
For situational awareness. Not to be used for flight planning purposes.
IDs:

KPHX - Phoenix/Sky Harbor, AZ, US

Issued at 1723 UTC 23 Jan 2019
Updated at 1807 UTC 23 Jan 2019
Potential Impact None Slight Moderate High
Time1751Z 23/19Z 23/20Z 23/21Z 23/22Z 23/23Z 24/00Z 24/01Z 24/02Z 24/03Z 24/04Z 24/05Z 24/06Z 24/07Z>>
Type OBS PRVL PRVL PRVL PRVL PRVL PRVL PRVL PRVL PRVL PRVL PRVL PRVL PRVL
VIS 10 >6 >6 >6 >6 >6 >6 >6 >6 >6 >6 >6 >6 >6
CIG -- -- -- -- -- -- -- -- -- -- -- -- -- --
Cover FEW SKC SKC SKC SKC SKC SKC SKC SKC SKC SKC SKC SKC SKC
FltCat VFR VFR VFR VFR VFR VFR VFR VFR VFR VFR VFR VFR VFR VFR
WX -- -- -- -- -- -- -- -- -- -- -- -- -- --
WDir VRB VRB VRB 270 270 270 270 270 270 270 270 70 70 70
WSpd 0 3 3 5 5 5 5 5 5 5 5 5 5 5
WGst -- -- -- -- -- -- -- -- -- -- -- -- -- --
Raw TAF
KPHX 231723Z 2318/2424 VRB03KT P6SM SKC
  FM232100 27005KT P6SM SKC
  FM240500 07005KT P6SM SKC


Raw METAR
KPHX 231751Z 00000KT 10SM FEW250 12/M07 A3033 RMK AO2 SLP267 T01221072 10122 20033 50005
KPHX 231651Z 00000KT 10SM FEW250 10/M06 A3034 RMK AO2 SLP271 T01001061
KPHX 231551Z 00000KT 10SM CLR 08/M04 A3033 RMK AO2 SLP266 T00781044 $

METAR Board
Radar Display
Forecast Discussion
For situational awareness. Not to be used for flight planning purposes.